Time;durP1;ratioP1;P1;durP2;ratioP2;P2;SDS_P1;SDS_P2;PMS_P1;PMS_P2;Temp;Humidity;BMP_temperature;BMP_pressure;BME280_temperature;BME280_humidity;BME280_pressure;Samples;Min_cycle;Max_cycle;Signal;HPM_P1;HPM_P2
2022/02/09 00:03:14;;;;;;;0.00;0.00;;;;;;;2.14;59.69;99587.16;6128218;23;20048;-82
2022/02/09 00:09:52;;;;;;;0.00;0.00;;;;;;;2.00;60.18;99594.28;6121786;23;20016;-81
2022/02/09 00:23:57;;;;;;;0.00;0.00;;;;;;;1.83;61.39;99597.38;6120386;23;20084;-79
2022/02/09 01:43:45;;;;;;;0.00;0.00;;;;;;;2.59;57.46;99597.78;6306400;22;20451;-79
2022/02/09 01:56:38;;;;;;;0.00;0.00;;;;;;;2.62;56.83;99584.13;6307329;22;20012;-77
2022/02/09 01:59:10;;;;;;;0.20;0.20;;;;;;;2.67;56.90;99586.97;6308426;22;19999;-81
2022/02/09 02:01:35;;;;;;;0.00;0.00;;;;;;;2.71;56.34;99582.88;6280617;22;20003;-79
2022/02/09 02:04:01;;;;;;;0.00;0.00;;;;;;;2.70;56.19;99583.91;6280226;22;20425;-79
2022/02/09 02:06:43;;;;;;;0.00;0.00;;;;;;;2.66;56.18;99584.53;6281390;22;20065;-81
2022/02/09 02:09:08;;;;;;;1.13;1.13;;;;;;;2.68;56.16;99590.41;6256371;22;20007;-80
2022/02/09 02:11:42;;;;;;;0.00;0.00;;;;;;;2.69;55.82;99584.13;6281163;22;20004;-80
2022/02/09 02:16:39;;;;;;;0.00;0.00;;;;;;;2.68;56.24;99582.50;6309163;22;20080;-80
2022/02/09 02:59:44;;;;;;;0.00;0.00;;;;;;;2.81;55.32;99592.19;6165074;23;20005;-78
2022/02/09 03:13:09;;;;;;;0.00;0.00;;;;;;;2.92;55.12;99594.16;6152933;23;20095;-78
2022/02/09 03:43:03;;;;;;;0.00;0.00;;;;;;;3.16;53.39;99589.94;6131062;23;20021;-81
2022/02/09 03:48:29;;;;;;;0.00;0.00;;;;;;;3.27;52.95;99572.59;6152823;23;20006;-79
2022/02/09 04:00:49;;;;;;;0.00;0.00;;;;;;;3.28;52.82;99570.75;6148198;23;20022;-79
2022/02/09 04:03:20;;;;;;;0.00;0.00;;;;;;;3.30;52.71;99563.44;6132290;23;20042;-83
2022/02/09 04:06:18;;;;;;;0.00;0.00;;;;;;;3.32;52.76;99559.53;6168182;23;19989;-81
2022/02/09 04:08:51;;;;;;;0.00;0.00;;;;;;;3.31;52.80;99557.13;6125879;22;20438;-79
2022/02/09 04:11:29;;;;;;;0.00;0.00;;;;;;;3.31;52.16;99554.47;6130761;23;19989;-82
2022/02/09 04:38:10;;;;;;;0.00;0.00;;;;;;;3.37;51.73;99577.41;6159622;23;20128;-82
2022/02/09 05:03:44;;;;;;;0.00;0.00;;;;;;;3.70;51.46;99592.19;6119451;23;20450;-81
2022/02/09 05:25:41;;;;;;;0.00;0.00;;;;;;;3.94;50.40;99582.59;6149667;23;20357;-77
2022/02/09 05:30:32;;;;;;;0.30;0.30;;;;;;;3.99;50.05;99582.75;6153378;23;20001;-81
2022/02/09 05:33:01;;;;;;;0.00;0.00;;;;;;;4.05;49.63;99585.53;6123917;22;20343;-81
2022/02/09 05:35:26;;;;;;;;;;;;;;;4.11;49.55;99588.13;6124205;23;20005;-81
2022/02/09 05:37:55;;;;;;;0.00;0.00;;;;;;;4.18;49.01;99592.56;6150734;23;19939;-80
2022/02/09 05:40:21;;;;;;;0.00;0.00;;;;;;;4.28;49.33;99590.97;6124446;23;20087;-80
2022/02/09 05:42:47;;;;;;;0.20;0.20;;;;;;;4.37;49.58;99591.53;6124726;23;20260;-80
2022/02/09 05:45:13;;;;;;;0.00;0.00;;;;;;;4.46;48.69;99597.31;6124799;23;20176;-80
2022/02/09 05:50:38;;;;;;;0.00;0.00;;;;;;;4.61;47.89;99587.16;6150257;23;20064;-80
2022/02/09 05:55:45;;;;;;;0.00;0.00;;;;;;;4.86;48.28;99602.13;6125574;23;20010;-81
2022/02/09 05:58:34;;;;;;;0.30;0.30;;;;;;;4.96;48.01;99605.03;6124519;23;20001;-80
2022/02/09 06:01:02;;;;;;;0.00;0.00;;;;;;;5.05;47.94;99616.13;6104866;23;20017;-81
2022/02/09 06:03:27;;;;;;;0.00;0.00;;;;;;;5.12;47.30;99614.19;6124325;23;20005;-80
2022/02/09 06:05:53;;;;;;;0.00;0.00;;;;;;;5.17;47.86;99613.50;6123948;23;20351;-80
2022/02/09 06:08:18;;;;;;;0.20;0.20;;;;;;;5.22;47.14;99626.09;6123565;23;20009;-80
2022/02/09 06:10:51;;;;;;;0.00;0.00;;;;;;;5.26;47.02;99625.44;6125705;23;20064;-81
2022/02/09 06:13:28;;;;;;;0.00;0.00;;;;;;;5.26;46.95;99628.09;6124677;23;20016;-81
2022/02/09 06:21:22;;;;;;;0.00;0.00;;;;;;;5.42;47.41;99650.50;6149629;23;20508;-80
2022/02/09 06:23:47;;;;;;;0.00;0.00;;;;;;;5.45;47.16;99660.63;6125665;23;20434;-81
2022/02/09 06:26:13;;;;;;;0.00;0.00;;;;;;;5.48;47.13;99655.91;6123367;23;20008;-81
2022/02/09 06:28:38;;;;;;;0.00;0.00;;;;;;;5.51;47.13;99658.94;6123942;23;20005;-80
2022/02/09 06:31:04;;;;;;;0.00;0.00;;;;;;;5.56;47.10;99659.06;6123540;23;20006;-80
2022/02/09 06:33:29;;;;;;;0.00;0.00;;;;;;;5.54;47.24;99663.78;6123936;23;20009;-81
2022/02/09 06:35:58;;;;;;;0.00;0.00;;;;;;;5.56;47.57;99660.91;6124279;23;20010;-81
2022/02/09 06:38:23;;;;;;;0.00;0.00;;;;;;;5.56;47.12;99672.31;6125747;23;20091;-80
2022/02/09 06:40:53;;;;;;;0.00;0.00;;;;;;;5.57;47.68;99678.44;6124707;23;20445;-80
2022/02/09 06:43:19;;;;;;;0.25;0.25;;;;;;;5.61;47.99;99684.91;6124372;23;20009;-81
2022/02/09 06:45:45;;;;;;;0.00;0.00;;;;;;;5.60;48.22;99680.63;6125311;23;20465;-80
2022/02/09 06:48:15;;;;;;;0.03;0.03;;;;;;;5.60;48.20;99676.16;6124162;23;20434;-80
2022/02/09 06:50:48;;;;;;;0.00;0.00;;;;;;;5.64;48.50;99689.78;6124406;23;20004;-80
2022/02/09 06:55:47;;;;;;;0.00;0.00;;;;;;;5.86;48.96;99675.94;6150445;23;20138;-80
2022/02/09 06:58:19;;;;;;;0.22;0.22;;;;;;;5.95;48.53;99671.13;6124058;23;20359;-80
2022/02/09 07:00:45;;;;;;;0.00;0.00;;;;;;;6.09;48.82;99664.56;6123972;23;20063;-80
2022/02/09 07:03:15;;;;;;;0.00;0.00;;;;;;;6.21;48.98;99653.94;6124973;23;20024;-80
2022/02/09 07:05:41;;;;;;;0.00;0.00;;;;;;;6.30;48.66;99660.53;6123943;23;20411;-81
2022/02/09 07:08:06;;;;;;;0.10;0.10;;;;;;;6.39;48.37;99659.13;6123741;23;20005;-80
2022/02/09 07:10:32;;;;;;;0.00;0.00;;;;;;;6.51;49.00;99664.44;6123486;23;19997;-80
2022/02/09 07:12:58;;;;;;;0.00;0.00;;;;;;;6.62;48.70;99677.94;6123743;23;20005;-80
2022/02/09 07:15:30;;;;;;;0.00;0.00;;;;;;;6.75;48.96;99668.88;6123569;23;20151;-80
2022/02/09 07:17:59;;;;;;;0.00;0.00;;;;;;;6.83;48.16;99652.56;6124080;23;20006;-80
2022/02/09 07:20:31;;;;;;;0.00;0.00;;;;;;;6.93;48.39;99660.72;6149937;23;20001;-80
2022/02/09 07:23:00;;;;;;;0.00;0.00;;;;;;;7.06;48.25;99654.34;6124754;23;20081;-80
2022/02/09 07:25:33;;;;;;;0.10;0.10;;;;;;;7.08;48.60;99635.47;6125807;23;20001;-81
2022/02/09 07:28:15;;;;;;;0.20;0.20;;;;;;;7.17;48.29;99642.84;6124136;23;20008;-81
2022/02/09 07:30:43;;;;;;;0.00;0.00;;;;;;;7.22;48.68;99642.13;6101060;23;20047;-81
2022/02/09 07:33:09;;;;;;;0.00;0.00;;;;;;;7.29;48.37;99655.28;6123687;23;20012;-82
2022/02/09 07:35:38;;;;;;;0.00;0.00;;;;;;;7.41;48.50;99652.56;6123350;23;20025;-81
2022/02/09 07:38:05;;;;;;;0.00;0.00;;;;;;;7.48;48.98;99671.84;6121569;23;20406;-82
2022/02/09 07:40:58;;;;;;;0.00;0.00;;;;;;;7.56;49.13;99673.31;6099661;23;20005;-81
2022/02/09 07:46:35;;;;;;;0.00;0.00;;;;;;;7.65;48.05;99682.50;6149692;23;20070;-81
2022/02/09 07:49:08;;;;;;;0.00;0.00;;;;;;;7.69;48.31;99689.78;6124589;23;20008;-81
2022/02/09 07:51:55;;;;;;;0.00;0.00;;;;;;;7.79;48.43;99699.00;6100051;23;20002;-81
2022/02/09 07:54:24;;;;;;;0.00;0.00;;;;;;;7.84;47.91;99702.53;6123079;23;20001;-81
2022/02/09 07:56:50;;;;;;;0.00;0.00;;;;;;;7.91;48.74;99705.03;6123280;23;20012;-81
2022/02/09 07:59:20;;;;;;;0.00;0.00;;;;;;;7.95;48.21;99710.69;6149823;23;20327;-81
2022/02/09 08:01:51;;;;;;;0.00;0.00;;;;;;;7.98;48.01;99711.03;6099779;23;20009;-81
2022/02/09 08:05:10;;;;;;;0.00;0.00;;;;;;;7.99;48.46;99704.63;6150566;23;20032;-82
2022/02/09 08:07:55;;;;;;;1.38;1.00;;;;;;;8.03;48.93;99699.63;6147458;23;20009;-81
2022/02/09 08:10:44;;;;;;;0.43;0.32;;;;;;;8.13;48.97;99710.44;6124934;22;20001;-81
2022/02/09 08:35:06;;;;;;;0.00;0.00;;;;;;;8.73;47.91;99700.09;6126029;23;20009;-79
2022/02/09 08:37:33;;;;;;;0.20;0.20;;;;;;;8.73;48.54;99715.31;6121815;23;20005;-81
2022/02/09 08:40:00;;;;;;;0.00;0.00;;;;;;;8.76;48.30;99725.47;6123006;23;20472;-81
2022/02/09 08:43:05;;;;;;;0.00;0.00;;;;;;;8.81;48.79;99726.34;6098847;23;20366;-82
2022/02/09 08:46:30;;;;;;;0.00;0.00;;;;;;;8.85;48.34;99723.19;6145520;23;20005;-81
2022/02/09 08:49:28;;;;;;;0.52;0.52;;;;;;;8.92;48.61;99724.63;6133622;23;20033;-82
2022/02/09 08:53:06;;;;;;;0.25;0.25;;;;;;;8.95;48.53;99723.31;6121181;23;20025;-81
2022/02/09 08:55:49;;;;;;;0.38;0.38;;;;;;;8.94;48.88;99719.84;6146718;23;20012;-81
2022/02/09 08:58:34;;;;;;;0.00;0.00;;;;;;;9.03;48.51;99716.72;6107474;23;20044;-82
2022/02/09 09:01:09;;;;;;;0.00;0.00;;;;;;;9.04;49.02;99716.47;6122726;23;20136;-80
2022/02/09 09:03:52;;;;;;;0.00;0.00;;;;;;;9.08;49.36;99722.13;6124708;23;20013;-81
2022/02/09 09:06:26;;;;;;;0.00;0.00;;;;;;;9.11;49.02;99727.78;6122733;23;19997;-81
2022/02/09 09:09:16;;;;;;;0.00;0.00;;;;;;;9.20;49.19;99722.78;6099493;23;20006;-82
2022/02/09 10:33:05;;;;;;;0.22;0.22;;;;;;;11.00;48.78;99687.78;6305653;22;20010;-84
2022/02/09 10:35:39;;;;;;;0.00;0.00;;;;;;;11.01;48.62;99703.56;6278448;22;20379;-83
2022/02/09 10:38:18;;;;;;;0.00;0.00;;;;;;;11.00;48.61;99703.84;6278842;22;20007;-83
2022/02/09 10:40:48;;;;;;;0.00;0.00;;;;;;;10.93;48.87;99705.97;6278202;22;20007;-83
2022/02/09 10:43:33;;;;;;;0.00;0.00;;;;;;;10.97;49.64;99712.38;6278646;22;20011;-85
2022/02/09 10:46:20;;;;;;;0.00;0.00;;;;;;;10.98;48.29;99719.34;6254185;22;20011;-81
2022/02/09 10:48:57;;;;;;;0.35;0.35;;;;;;;10.95;49.14;99720.69;6278145;22;20026;-85
2022/02/09 10:51:36;;;;;;;0.00;0.00;;;;;;;10.88;48.84;99728.16;6278305;22;19991;-84
2022/02/09 10:54:06;;;;;;;0.32;0.32;;;;;;;10.94;48.36;99727.09;6278458;22;20021;-83
2022/02/09 10:56:33;;;;;;;0.15;0.15;;;;;;;10.92;49.26;99725.75;6278128;22;20512;-83
2022/02/09 10:59:01;;;;;;;0.20;0.20;;;;;;;10.94;50.13;99731.66;6278265;22;20023;-82
2022/02/09 11:01:27;;;;;;;0.00;0.00;;;;;;;10.91;50.17;99726.81;6278142;22;20068;-82
2022/02/09 11:03:58;;;;;;;0.00;0.00;;;;;;;10.89;49.94;99735.91;6278250;22;20241;-81
2022/02/09 11:06:30;;;;;;;0.00;0.00;;;;;;;10.93;48.99;99727.38;6278233;22;20094;-81
2022/02/09 11:08:56;;;;;;;0.00;0.00;;;;;;;10.94;49.27;99721.75;6278137;22;19999;-82
2022/02/09 11:11:21;;;;;;;0.00;0.00;;;;;;;10.96;49.26;99714.28;6278155;22;19995;-82
2022/02/09 11:13:48;;;;;;;1.33;0.63;;;;;;;10.94;48.87;99720.94;6278148;22;19999;-83
2022/02/09 11:16:16;;;;;;;0.00;0.00;;;;;;;10.94;48.90;99721.75;6278203;22;20003;-84
2022/02/09 11:18:42;;;;;;;;;;;;;;;10.92;49.44;99723.06;6278492;22;20519;-80
2022/02/09 11:21:13;;;;;;;0.00;0.00;;;;;;;10.93;49.22;99727.38;6277796;22;19954;-81
2022/02/09 11:23:55;;;;;;;0.00;0.00;;;;;;;10.88;49.48;99734.28;6277920;22;20007;-83
2022/02/09 11:27:09;;;;;;;0.00;0.00;;;;;;;10.87;49.69;99734.56;6278441;22;20427;-81
2022/02/09 11:29:56;;;;;;;0.00;0.00;;;;;;;10.81;49.68;99728.38;6304195;22;20018;-82
2022/02/09 11:35:04;;;;;;;0.00;0.00;;;;;;;10.95;49.71;99717.19;6305477;22;20004;-81
2022/02/09 11:37:47;;;;;;;0.00;0.00;;;;;;;11.03;48.89;99728.22;6278374;22;20039;-81
2022/02/09 11:40:34;;;;;;;0.00;0.00;;;;;;;11.10;49.49;99722.59;6277914;22;20007;-81
2022/02/09 11:43:19;;;;;;;0.00;0.00;;;;;;;11.23;48.64;99721.31;6278234;22;20003;-81
2022/02/09 12:11:41;;;;;;;0.08;0.08;;;;;;;11.24;47.40;99722.91;6304692;22;20085;-84
2022/02/09 12:19:06;;;;;;;0.10;0.10;;;;;;;11.25;46.95;99727.19;6305219;22;20405;-83
2022/02/09 12:21:49;;;;;;;0.00;0.00;;;;;;;11.32;47.26;99722.41;6276984;22;20094;-80
2022/02/09 12:24:20;;;;;;;0.00;0.00;;;;;;;11.36;47.49;99722.66;6277633;22;20003;-81
2022/02/09 12:26:54;;;;;;;0.00;0.00;;;;;;;11.43;47.88;99730.47;6277449;22;20008;-81
2022/02/09 12:29:20;;;;;;;0.00;0.00;;;;;;;11.47;47.53;99724.28;6277259;22;20084;-81
2022/02/09 12:31:45;;;;;;;0.00;0.00;;;;;;;11.52;46.59;99731.53;6277366;22;20045;-80
2022/02/09 12:34:22;;;;;;;0.00;0.00;;;;;;;11.58;46.76;99730.47;6277595;22;20011;-80
2022/02/09 12:36:47;;;;;;;0.00;0.00;;;;;;;11.66;46.40;99732.66;6277455;22;20014;-81
2022/02/09 12:39:15;;;;;;;0.00;0.00;;;;;;;11.74;46.78;99730.50;6277552;22;20085;-81
2022/02/09 12:41:42;;;;;;;0.00;0.00;;;;;;;11.79;46.68;99736.69;6277154;22;20057;-80
2022/02/09 12:44:08;;;;;;;0.00;0.00;;;;;;;11.87;45.58;99734.56;6303363;22;20066;-80
2022/02/09 12:46:38;;;;;;;0.00;0.00;;;;;;;11.93;45.53;99739.63;6277547;22;20448;-80
2022/02/09 12:49:09;;;;;;;0.20;0.20;;;;;;;11.99;45.84;99743.94;6277455;22;20348;-82
2022/02/09 12:51:37;;;;;;;0.00;0.00;;;;;;;12.05;46.26;99728.69;6277467;22;20007;-82
2022/02/09 12:54:04;;;;;;;0.00;0.00;;;;;;;12.01;45.58;99732.94;6277029;22;20011;-82
2022/02/09 12:56:36;;;;;;;0.00;0.00;;;;;;;11.98;46.29;99734.28;6277557;22;20032;-81
2022/02/09 12:59:14;;;;;;;0.00;0.00;;;;;;;12.01;46.33;99738.31;6277617;22;20007;-82
2022/02/09 13:01:47;;;;;;;0.00;0.00;;;;;;;12.01;46.41;99736.44;6277209;22;20007;-82
2022/02/09 13:04:27;;;;;;;0.00;0.00;;;;;;;11.98;46.60;99738.88;6277412;22;20083;-81
2022/02/09 13:06:53;;;;;;;0.10;0.10;;;;;;;11.89;45.92;99725.16;6277354;22;20014;-81
2022/02/09 13:09:19;;;;;;;0.00;0.00;;;;;;;11.90;46.11;99737.50;6277440;22;20026;-81
2022/02/09 13:11:44;;;;;;;0.00;0.00;;;;;;;11.87;46.36;99735.34;6277094;22;20588;-81
2022/02/09 13:14:22;;;;;;;0.00;0.00;;;;;;;11.82;47.11;99732.66;6277334;22;20454;-81
2022/02/09 14:18:46;;;;;;;0.00;0.00;;;;;;;11.44;38.42;99754.31;6306151;22;20014;-81
2022/02/09 14:58:31;;;;;;;0.00;0.00;;;;;;;11.25;44.12;99788.78;6306017;22;20000;-79
2022/02/09 15:01:03;;;;;;;0.00;0.00;;;;;;;11.26;45.58;99790.38;6277625;22;20013;-80
2022/02/09 15:09:04;;;;;;;0.10;0.10;;;;;;;11.21;47.03;99791.16;6305665;22;20010;-81
2022/02/09 15:19:42;;;;;;;0.00;0.00;;;;;;;11.11;47.56;99799.16;6165109;22;20431;-79
2022/02/09 15:22:10;;;;;;;0.10;0.10;;;;;;;11.04;47.49;99796.72;6260521;22;20027;-79
2022/02/09 15:24:44;;;;;;;0.05;0.05;;;;;;;11.02;47.81;99793.50;6278163;22;20522;-79
2022/02/09 15:27:15;;;;;;;0.00;0.00;;;;;;;11.00;47.79;99801.00;6278003;22;20326;-79
2022/02/09 15:29:41;;;;;;;0.00;0.00;;;;;;;11.01;47.24;99794.56;6278471;22;20396;-79
2022/02/09 15:32:16;;;;;;;0.00;0.00;;;;;;;10.98;47.74;99792.41;6278063;22;20003;-80
2022/02/09 15:34:46;;;;;;;0.70;0.70;;;;;;;11.02;47.40;99800.72;6278162;22;20033;-82
2022/02/09 15:39:45;;;;;;;0.00;0.00;;;;;;;10.98;47.62;99800.44;6305531;22;20007;-80
2022/02/09 16:06:41;;;;;;;0.00;0.00;;;;;;;10.82;48.46;99804.09;6305076;22;20062;-78
2022/02/09 16:22:14;;;;;;;0.00;0.00;;;;;;;10.66;49.54;99830.75;6304875;22;20003;-78
2022/02/09 16:25:34;;;;;;;0.00;0.00;;;;;;;10.65;49.51;99836.38;6277655;22;20526;-77
2022/02/09 16:46:24;;;;;;;0.00;0.00;;;;;;;10.59;50.18;99859.59;6303043;22;20060;-88
2022/02/09 16:51:21;;;;;;;0.00;0.00;;;;;;;10.59;50.75;99862.25;6303095;22;19999;-90
2022/02/09 16:53:56;;;;;;;0.00;0.00;;;;;;;10.55;50.63;99872.66;6276216;22;20003;-90
2022/02/09 16:57:01;;;;;;;0.00;0.00;;;;;;;10.50;50.84;99872.63;6276674;22;20003;-89
2022/02/09 17:18:44;;;;;;;0.00;0.00;;;;;;;10.31;51.87;99876.72;6303128;22;20414;-80
2022/02/09 17:21:31;;;;;;;0.00;0.00;;;;;;;10.32;52.08;99881.00;6177455;23;20068;-76
2022/02/09 17:24:01;;;;;;;0.00;0.00;;;;;;;10.25;52.09;99882.00;6178762;23;20091;-77
2022/02/09 17:26:27;;;;;;;0.00;0.00;;;;;;;10.22;52.44;99879.03;6242463;22;20003;-80
2022/02/09 17:29:16;;;;;;;0.00;0.00;;;;;;;10.17;52.77;99884.34;6275239;22;20009;-82
2022/02/09 17:34:57;;;;;;;0.00;0.00;;;;;;;10.15;53.07;99889.13;6232653;22;20006;-82
2022/02/09 17:53:29;;;;;;;0.00;0.00;;;;;;;9.83;54.61;99904.00;6304072;22;20014;-78
2022/02/09 17:56:36;;;;;;;0.00;0.00;;;;;;;9.75;54.77;99907.94;6276653;22;20004;-82
2022/02/09 17:58:50;;;;;;;0.00;0.00;;;;;;;9.68;54.93;99910.00;6297958;22;20322;-84
2022/02/09 18:01:30;;;;;;;0.00;0.00;;;;;;;9.63;54.95;99909.94;6251481;22;20078;-86
2022/02/09 18:04:17;;;;;;;0.13;0.13;;;;;;;9.54;55.20;99912.19;6303077;22;20057;-79
2022/02/09 18:06:48;;;;;;;0.05;0.05;;;;;;;9.50;55.44;99920.97;6276513;22;20003;-78
2022/02/09 18:09:21;;;;;;;0.00;0.00;;;;;;;9.43;55.72;99919.28;6303708;22;20002;-78
2022/02/09 18:12:05;;;;;;;0.00;0.00;;;;;;;9.38;56.01;99919.22;6276437;22;20006;-76
2022/02/09 18:15:10;;;;;;;0.00;0.00;;;;;;;9.36;56.12;99917.84;6277109;22;20060;-76
2022/02/09 18:31:36;;;;;;;0.00;0.00;;;;;;;9.08;57.12;99947.09;6306113;22;20026;-81
2022/02/09 18:45:12;;;;;;;0.30;0.30;;;;;;;8.88;58.22;99966.22;6305880;22;20010;-76
2022/02/09 19:30:52;;;;;;;0.45;0.45;;;;;;;8.28;61.71;99988.88;6305001;22;20010;-77
2022/02/09 19:54:39;;;;;;;0.13;0.13;;;;;;;7.96;62.70;100019.44;6304725;22;20003;-77
2022/02/09 19:57:03;;;;;;;0.15;0.15;;;;;;;7.92;62.43;100010.28;6304543;22;20011;-78
2022/02/09 19:59:31;;;;;;;4.78;0.65;;;;;;;7.92;62.40;100022.78;6277820;22;20411;-78
2022/02/09 20:01:57;;;;;;;0.82;0.57;;;;;;;7.88;62.62;100024.31;6303231;22;20007;-77
2022/02/09 20:04:22;;;;;;;0.13;0.13;;;;;;;7.85;62.73;100023.72;6304836;22;20056;-77
2022/02/09 20:06:48;;;;;;;0.00;0.00;;;;;;;7.84;62.74;100024.75;6305005;22;20007;-77
2022/02/09 20:09:13;;;;;;;0.00;0.00;;;;;;;7.81;63.12;100025.25;6277816;22;20006;-75
2022/02/09 20:11:42;;;;;;;0.20;0.20;;;;;;;7.82;62.80;100029.53;6277774;22;20500;-77
2022/02/09 20:14:11;;;;;;;0.00;0.00;;;;;;;7.81;62.73;100032.41;6277073;22;20436;-77
2022/02/09 20:16:36;;;;;;;0.28;0.22;;;;;;;7.71;63.30;100029.53;6278113;22;20019;-77
2022/02/09 20:19:02;;;;;;;0.00;0.00;;;;;;;7.71;62.72;100032.19;6304495;22;20007;-77
2022/02/09 20:21:28;;;;;;;0.00;0.00;;;;;;;7.69;63.15;100029.78;6277405;22;20395;-76
2022/02/09 20:23:54;;;;;;;0.00;0.00;;;;;;;7.67;63.44;100027.31;6304860;22;20000;-76
2022/02/09 20:26:21;;;;;;;1.92;1.10;;;;;;;7.67;63.42;100023.84;6277507;22;20061;-76
2022/02/09 20:28:55;;;;;;;0.22;0.22;;;;;;;7.63;63.76;100031.50;6304791;22;20352;-76
2022/02/09 20:31:26;;;;;;;0.00;0.00;;;;;;;7.64;63.31;100025.13;6277378;22;20124;-76
2022/02/09 20:33:57;;;;;;;0.10;0.10;;;;;;;7.62;63.71;100029.06;6305314;22;20030;-77
2022/02/09 20:36:32;;;;;;;0.00;0.00;;;;;;;7.58;64.08;100019.91;6305522;22;19999;-81
2022/02/09 20:39:00;;;;;;;0.10;0.10;;;;;;;7.53;63.88;100025.94;6250625;22;20102;-77
2022/02/09 20:41:25;;;;;;;0.40;0.40;;;;;;;7.51;64.32;100028.03;6283486;22;20070;-80
2022/02/09 20:44:09;;;;;;;0.32;0.32;;;;;;;7.50;63.96;100029.88;6283217;22;20000;-80
2022/02/09 20:46:35;;;;;;;0.00;0.00;;;;;;;7.48;63.84;100039.94;6285423;22;19999;-80
2022/02/09 20:49:02;;;;;;;0.00;0.00;;;;;;;7.47;63.92;100027.69;6298743;22;20079;-80
2022/02/09 20:55:40;;;;;;;0.10;0.10;;;;;;;7.50;63.78;100039.72;6313527;22;20428;-82
2022/02/09 20:58:08;;;;;;;0.00;0.00;;;;;;;7.47;64.23;100033.00;6312460;22;20056;-81
2022/02/09 21:00:47;;;;;;;0.00;0.00;;;;;;;7.43;63.99;100041.69;6288691;22;19999;-82
2022/02/09 21:11:20;;;;;;;0.00;0.00;;;;;;;7.37;64.72;100046.06;6314460;22;20334;-78
2022/02/09 21:25:24;;;;;;;0.00;0.00;;;;;;;7.21;64.81;100045.72;6123449;23;20013;-80
2022/02/09 21:51:54;;;;;;;0.00;0.00;;;;;;;7.17;64.88;100051.72;6155385;23;20005;-77
2022/02/09 22:06:34;;;;;;;3.08;1.55;;;;;;;7.22;64.90;100070.44;6337543;22;20063;-78
2022/02/09 22:27:52;;;;;;;0.00;0.00;;;;;;;7.27;64.21;100070.56;6338332;22;20014;-78
2022/02/09 23:00:16;;;;;;;0.52;0.52;;;;;;;7.50;62.67;100069.78;6143735;22;20005;-83
2022/02/09 23:27:34;;;;;;;0.00;0.00;;;;;;;7.27;62.81;100059.94;6150675;23;20471;-77
